Aeroporto :
LOGIN :

Iscrizione | Disclaimer

   EN    FR    IT 

 










Sommario :    VFR   VFR Marginale   IFR   IFR Intensivo   IFR Molto Intensivo
Visibilità : 
Base nubi : 
>= 8 km
>= 3000ft
5 / 8 km
1000 / 3000 ft
1500m / 5 km
500 / 1000 ft
800 / 1500m
200 / 500 ft
< 800m
< 200 ft
Simboli :   Temporali  Nebbia  Neve Forte  Precipitazioni Forti  Vento > 20 kt
SIGMETs :   Varie  Temporali  Ghiacco  Turbolenza  Onda orograficha  Ceneri Vulcaniche






- Altitudine del aeroporto : 295 ft
- Codice IATA : BWE


EDVE - Braunschweig

ULTIMO METAR :
  • 250350Z AUTO 22004KT 180V240 9999 // FEW098/// BKN140/// BKN160/// 10/08 Q1013

METARs OBSOLETI :
  • 250320Z AUTO VRB02KT 9999 // FEW097/// OVC160/// 09/07 Q1013
  • 250250Z AUTO 19003KT 120V220 9999 // SCT096/// BKN140/// 10/08 Q1012
  • 250220Z AUTO VRB02KT 9999 // FEW051/// SCT140/// BKN170/// 10/08 Q1012
  • 250150Z AUTO 22003KT 9999 // BKN150/// BKN230/// 10/08 Q1012

Previsioni scadute.



MetMap, La meteo Aeronautica in un colpo d'occhio ! - Copyright ORBIFLY Dicembre 2007 - Disclaimer

ORBIFLY MET'MAP TEAM :

Programmazione e sviluppo : Alexandra Zaïnal
Concezione : Baudouin d'Aumeries
Supporto tecnico e logistico : Manuel Goepfert
Aiuto : Marc-Olivier Méhu
Aiuto per la traduzione : Arnaldo La Scala

Contatto : metmap@orbifly.com




FONTI E CREDITI :

   NOAA